sensor_id;sensor_type;location;lat;lon;timestamp;temperature;humidity
21355;DHT22;10835;50.148;19.760;2023-02-01T00:01:18;10.70;64.20
21355;DHT22;10835;50.148;19.760;2023-02-01T00:03:50;10.80;63.70
21355;DHT22;10835;50.148;19.760;2023-02-01T00:06:18;10.30;64.80
21355;DHT22;10835;50.148;19.760;2023-02-01T00:08:46;10.20;65.30
21355;DHT22;10835;50.148;19.760;2023-02-01T00:11:14;10.10;65.50
21355;DHT22;10835;50.148;19.760;2023-02-01T00:13:42;10.30;66.30
21355;DHT22;10835;50.148;19.760;2023-02-01T00:16:12;10.50;65.40
21355;DHT22;10835;50.148;19.760;2023-02-01T00:18:41;10.60;64.50
21355;DHT22;10835;50.148;19.760;2023-02-01T00:21:11;10.50;64.70
21355;DHT22;10835;50.148;19.760;2023-02-01T00:23:40;10.20;65.60
21355;DHT22;10835;50.148;19.760;2023-02-01T00:26:14;10.00;66.60
21355;DHT22;10835;50.148;19.760;2023-02-01T00:28:42;10.10;66.60
21355;DHT22;10835;50.148;19.760;2023-02-01T00:31:10;9.80;67.60
21355;DHT22;10835;50.148;19.760;2023-02-01T00:33:39;9.70;68.60
21355;DHT22;10835;50.148;19.760;2023-02-01T00:36:08;9.90;67.80
21355;DHT22;10835;50.148;19.760;2023-02-01T00:38:38;9.80;67.60
21355;DHT22;10835;50.148;19.760;2023-02-01T00:41:11;10.10;67.30
21355;DHT22;10835;50.148;19.760;2023-02-01T00:43:40;10.20;66.60
21355;DHT22;10835;50.148;19.760;2023-02-01T00:46:08;10.20;67.20
21355;DHT22;10835;50.148;19.760;2023-02-01T00:48:36;10.30;66.80
21355;DHT22;10835;50.148;19.760;2023-02-01T00:51:06;10.30;66.80
21355;DHT22;10835;50.148;19.760;2023-02-01T00:53:35;10.60;66.20
21355;DHT22;10835;50.148;19.760;2023-02-01T00:56:05;10.80;65.10
21355;DHT22;10835;50.148;19.760;2023-02-01T00:58:36;11.40;63.80
21355;DHT22;10835;50.148;19.760;2023-02-01T01:01:06;11.70;63.40
21355;DHT22;10835;50.148;19.760;2023-02-01T01:03:36;12.10;61.50
21355;DHT22;10835;50.148;19.760;2023-02-01T01:06:07;11.70;61.20
21355;DHT22;10835;50.148;19.760;2023-02-01T01:08:36;11.10;63.00
21355;DHT22;10835;50.148;19.760;2023-02-01T01:11:06;11.40;63.70
21355;DHT22;10835;50.148;19.760;2023-02-01T01:13:35;11.00;63.10
21355;DHT22;10835;50.148;19.760;2023-02-01T01:16:04;10.60;64.50
21355;DHT22;10835;50.148;19.760;2023-02-01T01:18:34;10.50;65.20
21355;DHT22;10835;50.148;19.760;2023-02-01T01:21:04;10.60;64.50
21355;DHT22;10835;50.148;19.760;2023-02-01T01:23:32;10.70;64.20
21355;DHT22;10835;50.148;19.760;2023-02-01T01:26:04;10.70;64.20
21355;DHT22;10835;50.148;19.760;2023-02-01T01:28:35;10.20;65.00
21355;DHT22;10835;50.148;19.760;2023-02-01T01:31:03;10.10;66.10
21355;DHT22;10835;50.148;19.760;2023-02-01T01:33:32;10.40;66.30
21355;DHT22;10835;50.148;19.760;2023-02-01T01:36:00;10.30;65.50
21355;DHT22;10835;50.148;19.760;2023-02-01T01:38:28;10.00;65.70
21355;DHT22;10835;50.148;19.760;2023-02-01T01:40:56;10.10;66.60
21355;DHT22;10835;50.148;19.760;2023-02-01T01:43:24;10.30;65.40
21355;DHT22;10835;50.148;19.760;2023-02-01T01:45:56;10.60;65.00
21355;DHT22;10835;50.148;19.760;2023-02-01T01:48:26;10.60;64.70
21355;DHT22;10835;50.148;19.760;2023-02-01T01:50:58;10.50;65.10
21355;DHT22;10835;50.148;19.760;2023-02-01T01:53:33;10.50;64.90
21355;DHT22;10835;50.148;19.760;2023-02-01T01:56:03;10.50;64.80
21355;DHT22;10835;50.148;19.760;2023-02-01T01:58:32;10.60;64.40
21355;DHT22;10835;50.148;19.760;2023-02-01T02:01:02;10.60;64.50
21355;DHT22;10835;50.148;19.760;2023-02-01T02:03:33;11.10;62.90
21355;DHT22;10835;50.148;19.760;2023-02-01T02:06:05;11.00;63.20
21355;DHT22;10835;50.148;19.760;2023-02-01T02:08:40;10.60;63.50
21355;DHT22;10835;50.148;19.760;2023-02-01T02:11:13;10.50;64.70
21355;DHT22;10835;50.148;19.760;2023-02-01T02:13:45;10.20;64.70
21355;DHT22;10835;50.148;19.760;2023-02-01T02:16:40;10.40;64.40
21355;DHT22;10835;50.148;19.760;2023-02-01T02:19:38;10.20;64.20
21355;DHT22;10835;50.148;19.760;2023-02-01T02:25:27;10.00;64.90
21355;DHT22;10835;50.148;19.760;2023-02-01T02:28:12;9.60;65.40
21355;DHT22;10835;50.148;19.760;2023-02-01T02:31:19;9.70;65.40
21355;DHT22;10835;50.148;19.760;2023-02-01T02:34:04;10.00;65.30
21355;DHT22;10835;50.148;19.760;2023-02-01T02:36:39;10.30;64.50
21355;DHT22;10835;50.148;19.760;2023-02-01T02:39:19;10.40;63.40
21355;DHT22;10835;50.148;19.760;2023-02-01T02:41:54;10.60;62.40
21355;DHT22;10835;50.148;19.760;2023-02-01T02:44:46;10.00;63.90
21355;DHT22;10835;50.148;19.760;2023-02-01T02:47:36;9.90;64.60
21355;DHT22;10835;50.148;19.760;2023-02-01T02:50:12;10.60;63.80
21355;DHT22;10835;50.148;19.760;2023-02-01T02:53:04;10.80;62.10
21355;DHT22;10835;50.148;19.760;2023-02-01T02:55:52;10.50;62.80
21355;DHT22;10835;50.148;19.760;2023-02-01T02:58:38;10.30;64.20
21355;DHT22;10835;50.148;19.760;2023-02-01T03:01:24;10.50;63.10
21355;DHT22;10835;50.148;19.760;2023-02-01T03:04:10;10.80;63.40
21355;DHT22;10835;50.148;19.760;2023-02-01T03:06:49;10.80;61.80
21355;DHT22;10835;50.148;19.760;2023-02-01T03:09:24;10.60;62.90
21355;DHT22;10835;50.148;19.760;2023-02-01T03:11:58;10.60;63.00
21355;DHT22;10835;50.148;19.760;2023-02-01T03:14:48;10.10;63.90
21355;DHT22;10835;50.148;19.760;2023-02-01T03:17:21;10.00;64.90
21355;DHT22;10835;50.148;19.760;2023-02-01T03:19:51;10.00;64.30
21355;DHT22;10835;50.148;19.760;2023-02-01T03:22:24;10.10;64.50
21355;DHT22;10835;50.148;19.760;2023-02-01T03:24:56;10.50;63.70
21355;DHT22;10835;50.148;19.760;2023-02-01T03:27:30;10.70;63.00
21355;DHT22;10835;50.148;19.760;2023-02-01T03:30:05;10.70;62.70
21355;DHT22;10835;50.148;19.760;2023-02-01T03:32:36;10.60;62.80
21355;DHT22;10835;50.148;19.760;2023-02-01T03:35:19;10.70;63.10
21355;DHT22;10835;50.148;19.760;2023-02-01T03:37:50;10.60;63.20
21355;DHT22;10835;50.148;19.760;2023-02-01T03:40:18;10.70;63.80
21355;DHT22;10835;50.148;19.760;2023-02-01T03:42:49;10.70;63.10
21355;DHT22;10835;50.148;19.760;2023-02-01T03:45:23;10.60;63.70
21355;DHT22;10835;50.148;19.760;2023-02-01T03:47:57;10.60;62.70
21355;DHT22;10835;50.148;19.760;2023-02-01T03:50:30;10.40;63.50
21355;DHT22;10835;50.148;19.760;2023-02-01T03:53:03;10.40;64.20
21355;DHT22;10835;50.148;19.760;2023-02-01T03:55:35;10.70;63.10
21355;DHT22;10835;50.148;19.760;2023-02-01T03:58:07;10.80;62.70
21355;DHT22;10835;50.148;19.760;2023-02-01T04:00:36;10.40;63.30
21355;DHT22;10835;50.148;19.760;2023-02-01T04:03:06;10.20;63.90
21355;DHT22;10835;50.148;19.760;2023-02-01T04:05:34;10.20;64.20
21355;DHT22;10835;50.148;19.760;2023-02-01T04:08:06;10.50;63.70
21355;DHT22;10835;50.148;19.760;2023-02-01T04:10:34;10.80;62.50
21355;DHT22;10835;50.148;19.760;2023-02-01T04:13:02;10.60;62.30
21355;DHT22;10835;50.148;19.760;2023-02-01T04:15:30;10.40;63.70
21355;DHT22;10835;50.148;19.760;2023-02-01T04:17:58;10.80;63.10
21355;DHT22;10835;50.148;19.760;2023-02-01T04:20:26;11.10;61.60
21355;DHT22;10835;50.148;19.760;2023-02-01T04:22:54;10.90;61.30
21355;DHT22;10835;50.148;19.760;2023-02-01T04:25:23;11.10;62.50
21355;DHT22;10835;50.148;19.760;2023-02-01T04:27:51;11.50;61.50
21355;DHT22;10835;50.148;19.760;2023-02-01T04:30:19;11.20;60.70
21355;DHT22;10835;50.148;19.760;2023-02-01T04:32:48;10.90;61.50
21355;DHT22;10835;50.148;19.760;2023-02-01T04:35:16;11.10;61.60
21355;DHT22;10835;50.148;19.760;2023-02-01T04:37:44;11.50;60.80
21355;DHT22;10835;50.148;19.760;2023-02-01T04:40:12;11.70;60.10
21355;DHT22;10835;50.148;19.760;2023-02-01T04:42:42;11.40;59.70
21355;DHT22;10835;50.148;19.760;2023-02-01T04:45:10;11.20;60.60
21355;DHT22;10835;50.148;19.760;2023-02-01T04:47:38;11.30;60.50
21355;DHT22;10835;50.148;19.760;2023-02-01T04:50:07;11.40;60.00
21355;DHT22;10835;50.148;19.760;2023-02-01T04:52:37;11.70;59.80
21355;DHT22;10835;50.148;19.760;2023-02-01T04:55:08;11.90;58.90
21355;DHT22;10835;50.148;19.760;2023-02-01T04:57:35;12.20;58.50
21355;DHT22;10835;50.148;19.760;2023-02-01T05:00:09;12.10;58.10
21355;DHT22;10835;50.148;19.760;2023-02-01T05:02:37;11.80;58.40
21355;DHT22;10835;50.148;19.760;2023-02-01T05:05:06;11.70;59.10
21355;DHT22;10835;50.148;19.760;2023-02-01T05:07:34;11.80;59.50
21355;DHT22;10835;50.148;19.760;2023-02-01T05:10:02;11.60;59.60
21355;DHT22;10835;50.148;19.760;2023-02-01T05:12:30;11.60;59.20
21355;DHT22;10835;50.148;19.760;2023-02-01T05:15:17;11.80;59.30
21355;DHT22;10835;50.148;19.760;2023-02-01T05:17:45;11.60;59.60
21355;DHT22;10835;50.148;19.760;2023-02-01T05:20:13;11.50;59.60
21355;DHT22;10835;50.148;19.760;2023-02-01T05:22:41;11.50;59.90
21355;DHT22;10835;50.148;19.760;2023-02-01T05:25:09;11.30;60.30
21355;DHT22;10835;50.148;19.760;2023-02-01T05:27:38;11.10;60.70
21355;DHT22;10835;50.148;19.760;2023-02-01T05:30:07;11.20;60.90
21355;DHT22;10835;50.148;19.760;2023-02-01T05:32:37;11.20;61.20
21355;DHT22;10835;50.148;19.760;2023-02-01T05:35:06;11.70;59.60
21355;DHT22;10835;50.148;19.760;2023-02-01T05:37:34;11.40;59.70
21355;DHT22;10835;50.148;19.760;2023-02-01T05:40:02;11.60;59.90
21355;DHT22;10835;50.148;19.760;2023-02-01T05:42:31;11.80;59.50
21355;DHT22;10835;50.148;19.760;2023-02-01T05:44:59;11.80;59.60
21355;DHT22;10835;50.148;19.760;2023-02-01T05:47:26;12.60;58.30
21355;DHT22;10835;50.148;19.760;2023-02-01T05:49:56;12.80;57.40
21355;DHT22;10835;50.148;19.760;2023-02-01T05:52:24;13.30;56.50
21355;DHT22;10835;50.148;19.760;2023-02-01T05:54:52;13.50;55.50
21355;DHT22;10835;50.148;19.760;2023-02-01T05:57:20;13.60;54.60
21355;DHT22;10835;50.148;19.760;2023-02-01T05:59:48;12.90;55.70
21355;DHT22;10835;50.148;19.760;2023-02-01T06:02:16;12.30;56.70
21355;DHT22;10835;50.148;19.760;2023-02-01T06:04:44;12.60;57.00
21355;DHT22;10835;50.148;19.760;2023-02-01T06:07:13;13.10;56.60
21355;DHT22;10835;50.148;19.760;2023-02-01T06:09:41;13.00;55.80
21355;DHT22;10835;50.148;19.760;2023-02-01T06:12:09;13.20;56.00
21355;DHT22;10835;50.148;19.760;2023-02-01T06:14:37;13.10;55.60
21355;DHT22;10835;50.148;19.760;2023-02-01T06:17:05;13.90;54.90
21355;DHT22;10835;50.148;19.760;2023-02-01T06:19:33;14.30;54.00
21355;DHT22;10835;50.148;19.760;2023-02-01T06:22:01;14.40;52.90
21355;DHT22;10835;50.148;19.760;2023-02-01T06:24:34;13.70;53.30
21355;DHT22;10835;50.148;19.760;2023-02-01T06:27:02;13.30;54.30
21355;DHT22;10835;50.148;19.760;2023-02-01T06:29:30;12.50;55.70
21355;DHT22;10835;50.148;19.760;2023-02-01T06:31:58;13.10;56.00
21355;DHT22;10835;50.148;19.760;2023-02-01T06:34:26;13.20;55.10
21355;DHT22;10835;50.148;19.760;2023-02-01T06:36:54;13.30;54.80
21355;DHT22;10835;50.148;19.760;2023-02-01T06:39:22;13.00;54.50
21355;DHT22;10835;50.148;19.760;2023-02-01T06:41:52;13.30;55.00
21355;DHT22;10835;50.148;19.760;2023-02-01T06:44:20;13.00;55.10
21355;DHT22;10835;50.148;19.760;2023-02-01T06:46:47;12.70;55.10
21355;DHT22;10835;50.148;19.760;2023-02-01T06:49:16;12.60;55.50
21355;DHT22;10835;50.148;19.760;2023-02-01T06:51:45;12.40;56.10
21355;DHT22;10835;50.148;19.760;2023-02-01T06:54:15;12.70;55.90
21355;DHT22;10835;50.148;19.760;2023-02-01T06:56:43;12.50;55.50
21355;DHT22;10835;50.148;19.760;2023-02-01T06:59:15;12.60;56.00
21355;DHT22;10835;50.148;19.760;2023-02-01T07:01:43;12.40;55.80
21355;DHT22;10835;50.148;19.760;2023-02-01T07:04:11;12.10;56.30
21355;DHT22;10835;50.148;19.760;2023-02-01T07:06:40;11.80;56.80
21355;DHT22;10835;50.148;19.760;2023-02-01T07:09:08;12.10;56.50
21355;DHT22;10835;50.148;19.760;2023-02-01T07:11:36;12.10;56.30
21355;DHT22;10835;50.148;19.760;2023-02-01T07:14:07;12.00;56.30
21355;DHT22;10835;50.148;19.760;2023-02-01T07:16:37;11.50;57.10
21355;DHT22;10835;50.148;19.760;2023-02-01T07:19:05;11.60;58.10
21355;DHT22;10835;50.148;19.760;2023-02-01T07:21:33;11.50;57.70
21355;DHT22;10835;50.148;19.760;2023-02-01T07:24:01;12.10;57.10
21355;DHT22;10835;50.148;19.760;2023-02-01T07:26:28;12.00;56.90
21355;DHT22;10835;50.148;19.760;2023-02-01T07:28:57;12.30;56.10
21355;DHT22;10835;50.148;19.760;2023-02-01T07:31:25;12.60;55.80
21355;DHT22;10835;50.148;19.760;2023-02-01T07:33:57;12.50;55.40
21355;DHT22;10835;50.148;19.760;2023-02-01T07:36:25;12.30;55.70
21355;DHT22;10835;50.148;19.760;2023-02-01T07:38:53;12.40;55.40
21355;DHT22;10835;50.148;19.760;2023-02-01T07:41:22;12.70;55.10
21355;DHT22;10835;50.148;19.760;2023-02-01T07:43:52;12.40;55.10
21355;DHT22;10835;50.148;19.760;2023-02-01T07:46:21;11.90;56.00
21355;DHT22;10835;50.148;19.760;2023-02-01T07:48:49;12.00;57.00
21355;DHT22;10835;50.148;19.760;2023-02-01T07:51:18;12.10;55.80
21355;DHT22;10835;50.148;19.760;2023-02-01T07:53:49;12.20;56.10
21355;DHT22;10835;50.148;19.760;2023-02-01T07:56:19;12.00;55.90
21355;DHT22;10835;50.148;19.760;2023-02-01T07:58:49;11.60;56.70
21355;DHT22;10835;50.148;19.760;2023-02-01T08:01:19;11.50;57.10
21355;DHT22;10835;50.148;19.760;2023-02-01T08:03:48;12.10;56.80
21355;DHT22;10835;50.148;19.760;2023-02-01T08:06:18;12.50;55.40
21355;DHT22;10835;50.148;19.760;2023-02-01T08:08:47;13.00;54.80
21355;DHT22;10835;50.148;19.760;2023-02-01T08:11:16;12.70;54.40
21355;DHT22;10835;50.148;19.760;2023-02-01T08:13:44;12.90;54.40
21355;DHT22;10835;50.148;19.760;2023-02-01T08:16:16;12.50;54.80
21355;DHT22;10835;50.148;19.760;2023-02-01T08:18:45;12.20;55.40
21355;DHT22;10835;50.148;19.760;2023-02-01T08:21:15;12.10;56.10
21355;DHT22;10835;50.148;19.760;2023-02-01T08:23:45;12.20;56.10
21355;DHT22;10835;50.148;19.760;2023-02-01T08:26:16;12.10;56.20
21355;DHT22;10835;50.148;19.760;2023-02-01T08:28:47;12.60;55.70
21355;DHT22;10835;50.148;19.760;2023-02-01T08:31:17;12.80;55.40
21355;DHT22;10835;50.148;19.760;2023-02-01T08:33:50;13.00;54.80
21355;DHT22;10835;50.148;19.760;2023-02-01T08:36:18;13.00;54.20
21355;DHT22;10835;50.148;19.760;2023-02-01T08:38:48;13.60;53.90
21355;DHT22;10835;50.148;19.760;2023-02-01T08:41:18;13.50;53.30
21355;DHT22;10835;50.148;19.760;2023-02-01T08:43:47;13.90;53.40
21355;DHT22;10835;50.148;19.760;2023-02-01T08:46:16;13.90;53.10
21355;DHT22;10835;50.148;19.760;2023-02-01T08:48:46;14.40;52.20
21355;DHT22;10835;50.148;19.760;2023-02-01T08:51:15;13.60;52.30
21355;DHT22;10835;50.148;19.760;2023-02-01T08:53:45;13.20;53.40
21355;DHT22;10835;50.148;19.760;2023-02-01T08:56:18;12.80;55.00
21355;DHT22;10835;50.148;19.760;2023-02-01T08:58:46;12.40;55.30
21355;DHT22;10835;50.148;19.760;2023-02-01T09:01:15;12.30;55.40
21355;DHT22;10835;50.148;19.760;2023-02-01T09:03:44;12.90;55.60
21355;DHT22;10835;50.148;19.760;2023-02-01T09:06:14;13.00;54.40
21355;DHT22;10835;50.148;19.760;2023-02-01T09:08:43;13.10;54.20
21355;DHT22;10835;50.148;19.760;2023-02-01T09:11:13;12.70;54.70
21355;DHT22;10835;50.148;19.760;2023-02-01T09:13:43;13.00;55.00
21355;DHT22;10835;50.148;19.760;2023-02-01T09:16:11;13.00;54.70
21355;DHT22;10835;50.148;19.760;2023-02-01T09:18:40;13.10;54.70
21355;DHT22;10835;50.148;19.760;2023-02-01T09:21:27;13.70;54.50
21355;DHT22;10835;50.148;19.760;2023-02-01T09:23:55;13.20;54.10
21355;DHT22;10835;50.148;19.760;2023-02-01T09:26:23;13.00;55.00
21355;DHT22;10835;50.148;19.760;2023-02-01T09:29:00;13.20;54.40
21355;DHT22;10835;50.148;19.760;2023-02-01T09:31:28;13.30;54.10
21355;DHT22;10835;50.148;19.760;2023-02-01T09:33:56;13.20;54.20
21355;DHT22;10835;50.148;19.760;2023-02-01T09:36:24;13.70;53.70
21355;DHT22;10835;50.148;19.760;2023-02-01T09:38:52;13.50;53.30
21355;DHT22;10835;50.148;19.760;2023-02-01T09:41:30;13.30;53.80
21355;DHT22;10835;50.148;19.760;2023-02-01T09:44:07;12.90;54.40
21355;DHT22;10835;50.148;19.760;2023-02-01T09:46:39;13.20;54.70
21355;DHT22;10835;50.148;19.760;2023-02-01T09:49:12;13.30;54.20
21355;DHT22;10835;50.148;19.760;2023-02-01T09:51:43;13.90;53.40
21355;DHT22;10835;50.148;19.760;2023-02-01T09:54:15;13.60;53.30
21355;DHT22;10835;50.148;19.760;2023-02-01T09:56:47;13.40;53.50
21355;DHT22;10835;50.148;19.760;2023-02-01T09:59:26;13.10;53.70
21355;DHT22;10835;50.148;19.760;2023-02-01T10:01:57;12.80;54.80
21355;DHT22;10835;50.148;19.760;2023-02-01T10:04:26;11.90;56.80
21355;DHT22;10835;50.148;19.760;2023-02-01T10:07:04;11.60;57.90
21355;DHT22;10835;50.148;19.760;2023-02-01T10:09:48;11.40;58.80
21355;DHT22;10835;50.148;19.760;2023-02-01T10:12:37;11.50;58.70
21355;DHT22;10835;50.148;19.760;2023-02-01T10:15:19;11.50;59.00
21355;DHT22;10835;50.148;19.760;2023-02-01T10:18:04;11.40;59.10
21355;DHT22;10835;50.148;19.760;2023-02-01T10:20:47;11.50;59.20
21355;DHT22;10835;50.148;19.760;2023-02-01T10:23:46;11.30;59.80
21355;DHT22;10835;50.148;19.760;2023-02-01T10:26:18;11.10;60.20
21355;DHT22;10835;50.148;19.760;2023-02-01T10:28:50;11.10;61.40
21355;DHT22;10835;50.148;19.760;2023-02-01T10:31:22;11.20;60.70
21355;DHT22;10835;50.148;19.760;2023-02-01T10:33:56;11.10;61.20
21355;DHT22;10835;50.148;19.760;2023-02-01T10:36:28;11.70;60.40
21355;DHT22;10835;50.148;19.760;2023-02-01T10:38:58;12.30;58.90
21355;DHT22;10835;50.148;19.760;2023-02-01T10:41:31;12.00;58.60
21355;DHT22;10835;50.148;19.760;2023-02-01T10:44:03;11.80;59.30
21355;DHT22;10835;50.148;19.760;2023-02-01T10:46:34;11.80;59.30
21355;DHT22;10835;50.148;19.760;2023-02-01T10:49:04;11.90;59.10
21355;DHT22;10835;50.148;19.760;2023-02-01T10:51:42;11.90;58.80
21355;DHT22;10835;50.148;19.760;2023-02-01T10:54:16;11.60;59.60
21355;DHT22;10835;50.148;19.760;2023-02-01T10:56:44;11.60;59.90
21355;DHT22;10835;50.148;19.760;2023-02-01T10:59:16;11.80;59.80
21355;DHT22;10835;50.148;19.760;2023-02-01T11:01:48;12.10;58.80
21355;DHT22;10835;50.148;19.760;2023-02-01T11:04:17;11.80;59.30
21355;DHT22;10835;50.148;19.760;2023-02-01T11:06:48;11.60;59.70
21355;DHT22;10835;50.148;19.760;2023-02-01T11:09:19;11.10;60.80
21355;DHT22;10835;50.148;19.760;2023-02-01T11:11:55;11.10;61.10
21355;DHT22;10835;50.148;19.760;2023-02-01T11:14:32;11.30;61.20
21355;DHT22;10835;50.148;19.760;2023-02-01T11:17:17;11.60;60.90
21355;DHT22;10835;50.148;19.760;2023-02-01T11:19:57;12.20;59.50
21355;DHT22;10835;50.148;19.760;2023-02-01T11:22:26;12.20;58.70
21355;DHT22;10835;50.148;19.760;2023-02-01T11:24:56;12.20;58.50
21355;DHT22;10835;50.148;19.760;2023-02-01T11:27:25;12.30;58.70
21355;DHT22;10835;50.148;19.760;2023-02-01T11:29:58;12.70;58.40
21355;DHT22;10835;50.148;19.760;2023-02-01T11:32:30;12.70;57.40
21355;DHT22;10835;50.148;19.760;2023-02-01T11:35:01;12.40;57.90
21355;DHT22;10835;50.148;19.760;2023-02-01T11:37:32;12.40;58.40
21355;DHT22;10835;50.148;19.760;2023-02-01T11:40:03;12.40;58.20
21355;DHT22;10835;50.148;19.760;2023-02-01T11:42:32;12.10;59.00
21355;DHT22;10835;50.148;19.760;2023-02-01T11:45:20;11.60;60.00
21355;DHT22;10835;50.148;19.760;2023-02-01T11:47:51;11.70;60.70
21355;DHT22;10835;50.148;19.760;2023-02-01T11:50:28;11.70;60.40
21355;DHT22;10835;50.148;19.760;2023-02-01T11:53:08;11.30;61.10
21355;DHT22;10835;50.148;19.760;2023-02-01T11:55:50;11.20;62.10
21355;DHT22;10835;50.148;19.760;2023-02-01T11:58:38;11.90;61.50
21355;DHT22;10835;50.148;19.760;2023-02-01T12:07:05;12.20;59.90
21355;DHT22;10835;50.148;19.760;2023-02-01T12:09:52;12.10;60.60
21355;DHT22;10835;50.148;19.760;2023-02-01T12:12:28;12.30;60.30
21355;DHT22;10835;50.148;19.760;2023-02-01T12:15:15;12.30;60.60
21355;DHT22;10835;50.148;19.760;2023-02-01T12:17:58;12.80;59.80
21355;DHT22;10835;50.148;19.760;2023-02-01T12:20:41;13.30;58.60
21355;DHT22;10835;50.148;19.760;2023-02-01T12:23:33;13.20;57.80
21355;DHT22;10835;50.148;19.760;2023-02-01T12:26:21;12.70;58.80
21355;DHT22;10835;50.148;19.760;2023-02-01T12:32:05;13.30;58.20
21355;DHT22;10835;50.148;19.760;2023-02-01T12:34:54;13.30;58.60
21355;DHT22;10835;50.148;19.760;2023-02-01T12:37:42;13.00;58.50
21355;DHT22;10835;50.148;19.760;2023-02-01T12:40:27;13.10;58.20
21355;DHT22;10835;50.148;19.760;2023-02-01T12:42:59;12.90;59.00
21355;DHT22;10835;50.148;19.760;2023-02-01T12:45:32;12.50;59.70
21355;DHT22;10835;50.148;19.760;2023-02-01T12:48:22;12.20;59.80
21355;DHT22;10835;50.148;19.760;2023-02-01T12:50:53;11.90;60.70
21355;DHT22;10835;50.148;19.760;2023-02-01T12:53:25;12.40;60.00
21355;DHT22;10835;50.148;19.760;2023-02-01T12:55:58;12.10;59.50
21355;DHT22;10835;50.148;19.760;2023-02-01T12:58:40;11.80;60.80
21355;DHT22;10835;50.148;19.760;2023-02-01T13:01:12;11.90;61.20
21355;DHT22;10835;50.148;19.760;2023-02-01T13:03:49;12.40;60.30
21355;DHT22;10835;50.148;19.760;2023-02-01T13:06:20;12.70;58.90
21355;DHT22;10835;50.148;19.760;2023-02-01T13:08:53;12.80;59.00
21355;DHT22;10835;50.148;19.760;2023-02-01T13:11:29;12.50;59.10
21355;DHT22;10835;50.148;19.760;2023-02-01T13:14:02;12.90;59.00
21355;DHT22;10835;50.148;19.760;2023-02-01T13:16:33;12.70;58.70
21355;DHT22;10835;50.148;19.760;2023-02-01T13:19:11;13.00;58.60
21355;DHT22;10835;50.148;19.760;2023-02-01T13:21:45;13.00;58.10
21355;DHT22;10835;50.148;19.760;2023-02-01T13:24:27;13.20;58.10
21355;DHT22;10835;50.148;19.760;2023-02-01T13:27:00;12.90;58.00
21355;DHT22;10835;50.148;19.760;2023-02-01T13:29:29;13.00;57.70
21355;DHT22;10835;50.148;19.760;2023-02-01T13:32:23;13.00;58.30
21355;DHT22;10835;50.148;19.760;2023-02-01T13:35:50;13.60;57.80
21355;DHT22;10835;50.148;19.760;2023-02-01T13:38:43;14.00;56.10
21355;DHT22;10835;50.148;19.760;2023-02-01T13:41:24;14.00;55.90
21355;DHT22;10835;50.148;19.760;2023-02-01T13:43:58;13.60;56.80
21355;DHT22;10835;50.148;19.760;2023-02-01T13:46:27;13.60;57.20
21355;DHT22;10835;50.148;19.760;2023-02-01T13:48:59;13.70;56.50
21355;DHT22;10835;50.148;19.760;2023-02-01T13:51:36;14.00;56.40
21355;DHT22;10835;50.148;19.760;2023-02-01T13:54:21;14.20;56.30
21355;DHT22;10835;50.148;19.760;2023-02-01T13:56:52;14.30;55.90
21355;DHT22;10835;50.148;19.760;2023-02-01T13:59:49;14.90;54.50
21355;DHT22;10835;50.148;19.760;2023-02-01T14:02:46;14.90;54.20
21355;DHT22;10835;50.148;19.760;2023-02-01T14:08:22;14.50;55.30
21355;DHT22;10835;50.148;19.760;2023-02-01T14:10:53;14.60;55.50
21355;DHT22;10835;50.148;19.760;2023-02-01T14:13:26;15.10;54.40
21355;DHT22;10835;50.148;19.760;2023-02-01T14:16:17;14.80;54.30
21355;DHT22;10835;50.148;19.760;2023-02-01T14:18:59;14.40;54.60
21355;DHT22;10835;50.148;19.760;2023-02-01T14:21:29;14.20;55.10
21355;DHT22;10835;50.148;19.760;2023-02-01T14:24:01;14.60;55.50
21355;DHT22;10835;50.148;19.760;2023-02-01T14:26:42;14.20;55.00
21355;DHT22;10835;50.148;19.760;2023-02-01T14:29:26;14.40;55.60
21355;DHT22;10835;50.148;19.760;2023-02-01T14:32:04;14.50;54.60
21355;DHT22;10835;50.148;19.760;2023-02-01T14:34:39;14.30;55.10
21355;DHT22;10835;50.148;19.760;2023-02-01T14:37:24;14.20;55.20
21355;DHT22;10835;50.148;19.760;2023-02-01T14:39:59;13.90;55.70
21355;DHT22;10835;50.148;19.760;2023-02-01T14:42:33;13.60;56.40
21355;DHT22;10835;50.148;19.760;2023-02-01T14:45:46;13.20;57.10
21355;DHT22;10835;50.148;19.760;2023-02-01T14:48:44;12.50;58.60
21355;DHT22;10835;50.148;19.760;2023-02-01T14:51:16;12.90;58.80
21355;DHT22;10835;50.148;19.760;2023-02-01T14:53:46;13.30;57.50
21355;DHT22;10835;50.148;19.760;2023-02-01T14:56:17;13.70;56.80
21355;DHT22;10835;50.148;19.760;2023-02-01T14:58:52;13.60;56.70
21355;DHT22;10835;50.148;19.760;2023-02-01T15:01:23;13.10;57.10
21355;DHT22;10835;50.148;19.760;2023-02-01T15:03:57;12.70;58.50
21355;DHT22;10835;50.148;19.760;2023-02-01T15:06:30;12.40;58.40
21355;DHT22;10835;50.148;19.760;2023-02-01T15:09:02;12.20;58.90
21355;DHT22;10835;50.148;19.760;2023-02-01T15:11:30;11.90;59.40
21355;DHT22;10835;50.148;19.760;2023-02-01T15:13:58;12.00;59.20
21355;DHT22;10835;50.148;19.760;2023-02-01T15:16:27;12.20;58.80
21355;DHT22;10835;50.148;19.760;2023-02-01T15:19:09;12.10;59.00
21355;DHT22;10835;50.148;19.760;2023-02-01T15:21:46;11.70;59.30
21355;DHT22;10835;50.148;19.760;2023-02-01T15:24:18;12.30;59.40
21355;DHT22;10835;50.148;19.760;2023-02-01T15:26:47;12.90;57.80
21355;DHT22;10835;50.148;19.760;2023-02-01T15:29:15;13.00;57.00
21355;DHT22;10835;50.148;19.760;2023-02-01T15:31:45;12.70;57.00
21355;DHT22;10835;50.148;19.760;2023-02-01T15:34:15;12.30;57.90
21355;DHT22;10835;50.148;19.760;2023-02-01T15:36:44;12.60;58.30
21355;DHT22;10835;50.148;19.760;2023-02-01T15:39:28;12.30;58.30
21355;DHT22;10835;50.148;19.760;2023-02-01T15:42:00;12.20;58.80
21355;DHT22;10835;50.148;19.760;2023-02-01T15:44:33;12.30;58.50
21355;DHT22;10835;50.148;19.760;2023-02-01T15:47:08;12.50;58.40
21355;DHT22;10835;50.148;19.760;2023-02-01T15:49:41;12.50;58.00
21355;DHT22;10835;50.148;19.760;2023-02-01T15:52:32;12.60;58.50
21355;DHT22;10835;50.148;19.760;2023-02-01T15:55:04;12.40;58.20
21355;DHT22;10835;50.148;19.760;2023-02-01T15:57:38;11.70;59.40
21355;DHT22;10835;50.148;19.760;2023-02-01T16:00:20;11.30;60.80
21355;DHT22;10835;50.148;19.760;2023-02-01T16:02:54;11.10;61.90
21355;DHT22;10835;50.148;19.760;2023-02-01T16:05:31;11.00;62.20
21355;DHT22;10835;50.148;19.760;2023-02-01T16:08:03;11.00;63.20
21355;DHT22;10835;50.148;19.760;2023-02-01T16:10:37;10.90;63.00